sensor_id;sensor_type;location;lat;lon;timestamp;pressure;altitude;pressure_sealevel;temperature;humidity
28027;BME280;15344;52.342;-1.290;2023-04-10T00:01:31;99978.19;;;12.87;87.80
28027;BME280;15344;52.342;-1.290;2023-04-10T00:03:56;99980.75;;;13.29;88.10
28027;BME280;15344;52.342;-1.290;2023-04-10T00:06:22;99975.44;;;13.61;86.54
28027;BME280;15344;52.342;-1.290;2023-04-10T00:08:48;99974.25;;;13.16;87.88
28027;BME280;15344;52.342;-1.290;2023-04-10T00:11:13;99967.02;;;13.51;86.24
28027;BME280;15344;52.342;-1.290;2023-04-10T00:13:39;99962.30;;;13.94;85.64
28027;BME280;15344;52.342;-1.290;2023-04-10T00:16:04;99958.31;;;13.81;83.43
28027;BME280;15344;52.342;-1.290;2023-04-10T00:18:29;99951.50;;;13.97;83.11
28027;BME280;15344;52.342;-1.290;2023-04-10T00:20:54;99949.44;;;13.30;84.85
28027;BME280;15344;52.342;-1.290;2023-04-10T00:23:20;99951.13;;;14.11;81.87
28027;BME280;15344;52.342;-1.290;2023-04-10T00:25:46;99942.76;;;13.13;85.24
28027;BME280;15344;52.342;-1.290;2023-04-10T00:28:11;99940.08;;;14.12;81.17
28027;BME280;15344;52.342;-1.290;2023-04-10T00:30:36;99936.75;;;13.65;84.64
28027;BME280;15344;52.342;-1.290;2023-04-10T00:33:02;99926.09;;;14.21;81.50
28027;BME280;15344;52.342;-1.290;2023-04-10T00:35:28;99932.45;;;13.63;86.50
28027;BME280;15344;52.342;-1.290;2023-04-10T00:37:53;99925.26;;;12.88;90.48
28027;BME280;15344;52.342;-1.290;2023-04-10T00:40:19;99918.88;;;12.08;95.56
28027;BME280;15344;52.342;-1.290;2023-04-10T00:42:44;99913.79;;;12.11;96.74
28027;BME280;15344;52.342;-1.290;2023-04-10T00:45:10;99909.64;;;13.10;93.30
28027;BME280;15344;52.342;-1.290;2023-04-10T00:47:36;99904.68;;;13.14;94.16
28027;BME280;15344;52.342;-1.290;2023-04-10T00:50:00;99899.80;;;13.61;92.17
28027;BME280;15344;52.342;-1.290;2023-04-10T00:52:26;99889.57;;;12.87;95.60
28027;BME280;15344;52.342;-1.290;2023-04-10T00:54:52;99887.38;;;12.01;100.00
28027;BME280;15344;52.342;-1.290;2023-04-10T00:57:17;99887.35;;;12.58;99.35
28027;BME280;15344;52.342;-1.290;2023-04-10T00:59:43;99884.97;;;12.97;98.30
28027;BME280;15344;52.342;-1.290;2023-04-10T01:02:07;99883.17;;;11.91;100.00
28027;BME280;15344;52.342;-1.290;2023-04-10T01:04:33;99877.79;;;12.25;100.00
28027;BME280;15344;52.342;-1.290;2023-04-10T01:07:03;99875.20;;;12.91;100.00
28027;BME280;15344;52.342;-1.290;2023-04-10T01:09:31;99878.68;;;12.30;100.00
28027;BME280;15344;52.342;-1.290;2023-04-10T01:11:53;99878.18;;;11.32;100.00
28027;BME280;15344;52.342;-1.290;2023-04-10T01:14:22;99861.42;;;11.87;100.00
28027;BME280;15344;52.342;-1.290;2023-04-10T01:16:44;99857.11;;;11.98;100.00
28027;BME280;15344;52.342;-1.290;2023-04-10T01:19:14;99853.71;;;11.93;100.00
28027;BME280;15344;52.342;-1.290;2023-04-10T01:21:34;99857.63;;;11.77;100.00
28027;BME280;15344;52.342;-1.290;2023-04-10T01:24:08;99850.03;;;11.95;100.00
28027;BME280;15344;52.342;-1.290;2023-04-10T01:26:35;99842.63;;;12.09;100.00
28027;BME280;15344;52.342;-1.290;2023-04-10T01:28:51;99849.23;;;10.86;100.00
28027;BME280;15344;52.342;-1.290;2023-04-10T01:31:17;99842.81;;;11.57;100.00
28027;BME280;15344;52.342;-1.290;2023-04-10T01:33:44;99842.64;;;11.98;100.00
28027;BME280;15344;52.342;-1.290;2023-04-10T01:36:05;99839.49;;;11.25;100.00
28027;BME280;15344;52.342;-1.290;2023-04-10T01:38:30;99832.61;;;11.59;100.00
28027;BME280;15344;52.342;-1.290;2023-04-10T01:40:55;99819.54;;;12.57;100.00
28027;BME280;15344;52.342;-1.290;2023-04-10T01:43:21;99815.17;;;12.12;100.00
28027;BME280;15344;52.342;-1.290;2023-04-10T01:45:47;99814.09;;;12.18;100.00
28027;BME280;15344;52.342;-1.290;2023-04-10T01:48:12;99805.68;;;12.41;100.00
28027;BME280;15344;52.342;-1.290;2023-04-10T01:50:38;99802.94;;;12.66;100.00
28027;BME280;15344;52.342;-1.290;2023-04-10T01:53:04;99795.59;;;12.32;100.00
28027;BME280;15344;52.342;-1.290;2023-04-10T01:55:29;99791.76;;;12.69;100.00
28027;BME280;15344;52.342;-1.290;2023-04-10T01:57:54;99791.23;;;12.34;100.00
28027;BME280;15344;52.342;-1.290;2023-04-10T02:00:19;99790.55;;;11.94;100.00
28027;BME280;15344;52.342;-1.290;2023-04-10T02:02:44;99792.05;;;12.45;100.00
28027;BME280;15344;52.342;-1.290;2023-04-10T02:05:10;99790.12;;;11.92;100.00
28027;BME280;15344;52.342;-1.290;2023-04-10T02:07:41;99787.89;;;12.27;100.00
28027;BME280;15344;52.342;-1.290;2023-04-10T02:10:06;99784.89;;;12.32;100.00
28027;BME280;15344;52.342;-1.290;2023-04-10T02:12:28;99782.72;;;11.94;100.00
28027;BME280;15344;52.342;-1.290;2023-04-10T02:14:52;99780.06;;;11.98;100.00
28027;BME280;15344;52.342;-1.290;2023-04-10T02:17:19;99779.15;;;11.94;100.00
28027;BME280;15344;52.342;-1.290;2023-04-10T02:19:44;99777.68;;;13.00;100.00
28027;BME280;15344;52.342;-1.290;2023-04-10T02:22:07;99780.19;;;12.75;100.00
28027;BME280;15344;52.342;-1.290;2023-04-10T02:24:32;99775.22;;;13.02;100.00
28027;BME280;15344;52.342;-1.290;2023-04-10T02:26:58;99771.77;;;13.00;100.00
28027;BME280;15344;52.342;-1.290;2023-04-10T02:29:24;99769.62;;;12.90;100.00
28027;BME280;15344;52.342;-1.290;2023-04-10T02:31:49;99772.05;;;12.72;100.00
28027;BME280;15344;52.342;-1.290;2023-04-10T02:34:14;99767.53;;;12.68;100.00
28027;BME280;15344;52.342;-1.290;2023-04-10T02:36:40;99765.27;;;12.53;100.00
28027;BME280;15344;52.342;-1.290;2023-04-10T02:39:06;99759.19;;;12.53;100.00
28027;BME280;15344;52.342;-1.290;2023-04-10T02:41:32;99754.02;;;12.05;100.00
28027;BME280;15344;52.342;-1.290;2023-04-10T02:43:57;99753.79;;;11.94;100.00
28027;BME280;15344;52.342;-1.290;2023-04-10T02:46:23;99755.06;;;12.63;100.00
28027;BME280;15344;52.342;-1.290;2023-04-10T02:48:50;99757.28;;;12.39;100.00
28027;BME280;15344;52.342;-1.290;2023-04-10T02:51:14;99754.06;;;12.71;100.00
28027;BME280;15344;52.342;-1.290;2023-04-10T02:53:40;99750.16;;;13.25;100.00
28027;BME280;15344;52.342;-1.290;2023-04-10T02:56:05;99743.01;;;13.57;100.00
28027;BME280;15344;52.342;-1.290;2023-04-10T02:58:30;99740.07;;;13.25;100.00
28027;BME280;15344;52.342;-1.290;2023-04-10T03:00:56;99732.69;;;13.98;100.00
28027;BME280;15344;52.342;-1.290;2023-04-10T03:03:21;99725.26;;;13.69;100.00
28027;BME280;15344;52.342;-1.290;2023-04-10T03:05:47;99714.52;;;13.92;100.00
28027;BME280;15344;52.342;-1.290;2023-04-10T03:08:12;99707.76;;;13.84;100.00
28027;BME280;15344;52.342;-1.290;2023-04-10T03:10:37;99697.64;;;13.71;100.00
28027;BME280;15344;52.342;-1.290;2023-04-10T03:13:03;99693.36;;;13.52;100.00
28027;BME280;15344;52.342;-1.290;2023-04-10T03:15:29;99683.60;;;13.19;100.00
28027;BME280;15344;52.342;-1.290;2023-04-10T03:17:55;99681.38;;;12.90;100.00
28027;BME280;15344;52.342;-1.290;2023-04-10T03:20:20;99673.69;;;13.22;100.00
28027;BME280;15344;52.342;-1.290;2023-04-10T03:22:46;99671.74;;;13.47;100.00
28027;BME280;15344;52.342;-1.290;2023-04-10T03:25:11;99664.00;;;13.10;100.00
28027;BME280;15344;52.342;-1.290;2023-04-10T03:27:37;99666.27;;;13.32;100.00
28027;BME280;15344;52.342;-1.290;2023-04-10T03:30:02;99661.00;;;13.35;100.00
28027;BME280;15344;52.342;-1.290;2023-04-10T03:32:28;99659.44;;;13.11;100.00
28027;BME280;15344;52.342;-1.290;2023-04-10T03:34:52;99660.43;;;12.97;100.00
28027;BME280;15344;52.342;-1.290;2023-04-10T03:37:18;99666.97;;;13.06;100.00
28027;BME280;15344;52.342;-1.290;2023-04-10T03:39:43;99664.33;;;12.37;100.00
28027;BME280;15344;52.342;-1.290;2023-04-10T03:42:09;99659.71;;;12.75;100.00
28027;BME280;15344;52.342;-1.290;2023-04-10T03:44:34;99654.09;;;13.08;100.00
28027;BME280;15344;52.342;-1.290;2023-04-10T03:47:00;99648.92;;;12.93;100.00
28027;BME280;15344;52.342;-1.290;2023-04-10T03:49:26;99647.63;;;13.06;100.00
28027;BME280;15344;52.342;-1.290;2023-04-10T03:51:51;99651.32;;;11.99;100.00
28027;BME280;15344;52.342;-1.290;2023-04-10T03:54:17;99648.99;;;12.07;100.00
28027;BME280;15344;52.342;-1.290;2023-04-10T03:56:43;99643.12;;;12.15;100.00
28027;BME280;15344;52.342;-1.290;2023-04-10T03:59:08;99638.86;;;12.82;100.00
28027;BME280;15344;52.342;-1.290;2023-04-10T04:01:33;99632.22;;;12.45;100.00
28027;BME280;15344;52.342;-1.290;2023-04-10T04:03:59;99630.27;;;13.02;100.00
28027;BME280;15344;52.342;-1.290;2023-04-10T04:06:24;99627.87;;;13.04;100.00
28027;BME280;15344;52.342;-1.290;2023-04-10T04:08:49;99616.37;;;13.05;100.00
28027;BME280;15344;52.342;-1.290;2023-04-10T04:11:15;99613.26;;;13.40;100.00
28027;BME280;15344;52.342;-1.290;2023-04-10T04:13:40;99606.74;;;12.91;100.00
28027;BME280;15344;52.342;-1.290;2023-04-10T04:16:06;99600.61;;;12.69;100.00
28027;BME280;15344;52.342;-1.290;2023-04-10T04:18:30;99590.68;;;12.98;100.00
28027;BME280;15344;52.342;-1.290;2023-04-10T04:20:56;99588.44;;;12.80;100.00
28027;BME280;15344;52.342;-1.290;2023-04-10T04:23:21;99580.12;;;12.61;100.00
28027;BME280;15344;52.342;-1.290;2023-04-10T04:25:46;99576.77;;;13.28;100.00
28027;BME280;15344;52.342;-1.290;2023-04-10T04:28:12;99573.97;;;12.61;100.00
28027;BME280;15344;52.342;-1.290;2023-04-10T04:30:37;99573.80;;;13.17;100.00
28027;BME280;15344;52.342;-1.290;2023-04-10T04:33:02;99571.72;;;13.00;100.00
28027;BME280;15344;52.342;-1.290;2023-04-10T04:35:28;99566.89;;;13.27;100.00
28027;BME280;15344;52.342;-1.290;2023-04-10T04:37:53;99563.11;;;13.22;100.00
28027;BME280;15344;52.342;-1.290;2023-04-10T04:40:19;99559.75;;;13.18;100.00
28027;BME280;15344;52.342;-1.290;2023-04-10T04:42:45;99562.58;;;13.54;100.00
28027;BME280;15344;52.342;-1.290;2023-04-10T04:45:10;99563.47;;;13.38;100.00
28027;BME280;15344;52.342;-1.290;2023-04-10T04:47:35;99565.20;;;13.04;100.00
28027;BME280;15344;52.342;-1.290;2023-04-10T04:50:01;99562.69;;;13.42;100.00
28027;BME280;15344;52.342;-1.290;2023-04-10T04:52:26;99559.34;;;12.87;100.00
28027;BME280;15344;52.342;-1.290;2023-04-10T04:54:51;99545.75;;;13.92;100.00
28027;BME280;15344;52.342;-1.290;2023-04-10T04:57:17;99536.81;;;13.36;100.00
28027;BME280;15344;52.342;-1.290;2023-04-10T04:59:42;99526.61;;;12.76;100.00
28027;BME280;15344;52.342;-1.290;2023-04-10T05:02:07;99528.31;;;12.36;100.00
28027;BME280;15344;52.342;-1.290;2023-04-10T05:04:32;99526.16;;;12.30;100.00
28027;BME280;15344;52.342;-1.290;2023-04-10T05:06:57;99524.87;;;12.19;100.00
28027;BME280;15344;52.342;-1.290;2023-04-10T05:09:23;99522.92;;;11.78;100.00
28027;BME280;15344;52.342;-1.290;2023-04-10T05:11:48;99523.44;;;12.33;100.00
28027;BME280;15344;52.342;-1.290;2023-04-10T05:14:14;99524.65;;;12.48;100.00
28027;BME280;15344;52.342;-1.290;2023-04-10T05:16:40;99522.23;;;11.80;100.00
28027;BME280;15344;52.342;-1.290;2023-04-10T05:19:05;99526.54;;;12.58;100.00
28027;BME280;15344;52.342;-1.290;2023-04-10T05:21:30;99527.25;;;12.45;100.00
28027;BME280;15344;52.342;-1.290;2023-04-10T05:23:55;99529.12;;;12.74;100.00
28027;BME280;15344;52.342;-1.290;2023-04-10T05:26:21;99526.33;;;12.71;100.00
28027;BME280;15344;52.342;-1.290;2023-04-10T05:28:46;99521.87;;;12.90;100.00
28027;BME280;15344;52.342;-1.290;2023-04-10T05:31:11;99522.41;;;12.34;100.00
28027;BME280;15344;52.342;-1.290;2023-04-10T05:33:37;99524.63;;;12.87;100.00
28027;BME280;15344;52.342;-1.290;2023-04-10T05:36:03;99520.82;;;12.38;100.00
28027;BME280;15344;52.342;-1.290;2023-04-10T05:38:27;99516.34;;;12.86;100.00
28027;BME280;15344;52.342;-1.290;2023-04-10T05:40:53;99518.95;;;13.52;100.00
28027;BME280;15344;52.342;-1.290;2023-04-10T05:43:17;99510.63;;;13.57;100.00
28027;BME280;15344;52.342;-1.290;2023-04-10T05:45:43;99501.46;;;14.08;100.00
28027;BME280;15344;52.342;-1.290;2023-04-10T05:48:08;99505.24;;;12.80;100.00
28027;BME280;15344;52.342;-1.290;2023-04-10T05:50:34;99506.49;;;12.94;100.00
28027;BME280;15344;52.342;-1.290;2023-04-10T05:52:59;99501.20;;;14.06;100.00
28027;BME280;15344;52.342;-1.290;2023-04-10T05:55:24;99498.21;;;13.12;100.00
28027;BME280;15344;52.342;-1.290;2023-04-10T05:57:50;99492.86;;;12.87;100.00
28027;BME280;15344;52.342;-1.290;2023-04-10T06:00:16;99494.04;;;13.21;100.00
28027;BME280;15344;52.342;-1.290;2023-04-10T06:02:40;99499.73;;;13.18;100.00
28027;BME280;15344;52.342;-1.290;2023-04-10T06:05:06;99495.76;;;12.71;100.00
28027;BME280;15344;52.342;-1.290;2023-04-10T06:07:31;99497.56;;;12.62;100.00
28027;BME280;15344;52.342;-1.290;2023-04-10T06:09:56;99492.79;;;12.44;100.00
28027;BME280;15344;52.342;-1.290;2023-04-10T06:12:21;99488.75;;;12.84;100.00
28027;BME280;15344;52.342;-1.290;2023-04-10T06:14:47;99490.98;;;12.49;100.00
28027;BME280;15344;52.342;-1.290;2023-04-10T06:17:13;99484.93;;;11.83;100.00
28027;BME280;15344;52.342;-1.290;2023-04-10T06:19:38;99488.43;;;12.50;100.00
28027;BME280;15344;52.342;-1.290;2023-04-10T06:22:03;99491.24;;;12.99;100.00
28027;BME280;15344;52.342;-1.290;2023-04-10T06:24:28;99488.49;;;13.01;100.00
28027;BME280;15344;52.342;-1.290;2023-04-10T06:26:54;99481.58;;;12.95;100.00
28027;BME280;15344;52.342;-1.290;2023-04-10T06:29:19;99473.90;;;12.15;100.00
28027;BME280;15344;52.342;-1.290;2023-04-10T06:31:44;99476.30;;;12.22;100.00
28027;BME280;15344;52.342;-1.290;2023-04-10T06:34:10;99474.50;;;11.85;100.00
28027;BME280;15344;52.342;-1.290;2023-04-10T06:36:35;99470.27;;;12.62;100.00
28027;BME280;15344;52.342;-1.290;2023-04-10T06:39:01;99471.95;;;12.39;100.00
28027;BME280;15344;52.342;-1.290;2023-04-10T06:41:26;99470.56;;;12.70;100.00
28027;BME280;15344;52.342;-1.290;2023-04-10T06:43:51;99464.60;;;12.96;100.00
28027;BME280;15344;52.342;-1.290;2023-04-10T06:46:16;99458.35;;;12.72;100.00
28027;BME280;15344;52.342;-1.290;2023-04-10T06:48:43;99457.01;;;12.91;100.00
28027;BME280;15344;52.342;-1.290;2023-04-10T06:51:07;99455.65;;;12.51;100.00
28027;BME280;15344;52.342;-1.290;2023-04-10T06:53:33;99447.89;;;12.74;100.00
28027;BME280;15344;52.342;-1.290;2023-04-10T06:55:58;99444.31;;;13.19;100.00
28027;BME280;15344;52.342;-1.290;2023-04-10T06:58:23;99441.10;;;12.86;100.00
28027;BME280;15344;52.342;-1.290;2023-04-10T07:00:49;99439.02;;;12.35;100.00
28027;BME280;15344;52.342;-1.290;2023-04-10T07:03:14;99434.39;;;12.34;100.00
28027;BME280;15344;52.342;-1.290;2023-04-10T07:05:39;99432.77;;;13.37;100.00
28027;BME280;15344;52.342;-1.290;2023-04-10T07:08:05;99429.14;;;13.08;100.00
28027;BME280;15344;52.342;-1.290;2023-04-10T07:10:30;99422.46;;;13.64;100.00
28027;BME280;15344;52.342;-1.290;2023-04-10T07:12:56;99424.12;;;12.92;100.00
28027;BME280;15344;52.342;-1.290;2023-04-10T07:15:21;99424.26;;;12.75;100.00
28027;BME280;15344;52.342;-1.290;2023-04-10T07:17:47;99418.16;;;13.50;100.00
28027;BME280;15344;52.342;-1.290;2023-04-10T07:20:11;99418.54;;;13.61;100.00
28027;BME280;15344;52.342;-1.290;2023-04-10T07:22:37;99419.86;;;13.35;100.00
28027;BME280;15344;52.342;-1.290;2023-04-10T07:25:03;99419.78;;;12.63;100.00
28027;BME280;15344;52.342;-1.290;2023-04-10T07:27:28;99412.34;;;13.35;100.00
28027;BME280;15344;52.342;-1.290;2023-04-10T07:29:54;99414.70;;;12.43;100.00
28027;BME280;15344;52.342;-1.290;2023-04-10T07:32:18;99406.97;;;13.14;100.00
28027;BME280;15344;52.342;-1.290;2023-04-10T07:34:44;99408.12;;;12.45;100.00
28027;BME280;15344;52.342;-1.290;2023-04-10T07:37:09;99401.28;;;12.69;100.00
28027;BME280;15344;52.342;-1.290;2023-04-10T07:39:34;99395.82;;;13.27;100.00
28027;BME280;15344;52.342;-1.290;2023-04-10T07:42:00;99395.12;;;12.24;100.00
28027;BME280;15344;52.342;-1.290;2023-04-10T07:44:25;99385.24;;;12.68;100.00
28027;BME280;15344;52.342;-1.290;2023-04-10T07:46:51;99377.21;;;13.14;100.00
28027;BME280;15344;52.342;-1.290;2023-04-10T07:49:16;99379.69;;;13.56;100.00
28027;BME280;15344;52.342;-1.290;2023-04-10T07:51:41;99377.55;;;13.31;100.00
28027;BME280;15344;52.342;-1.290;2023-04-10T07:54:06;99372.86;;;13.08;100.00
28027;BME280;15344;52.342;-1.290;2023-04-10T07:56:32;99364.01;;;13.40;100.00
28027;BME280;15344;52.342;-1.290;2023-04-10T07:58:59;99360.79;;;13.25;100.00
28027;BME280;15344;52.342;-1.290;2023-04-10T08:01:22;99363.95;;;13.00;100.00
28027;BME280;15344;52.342;-1.290;2023-04-10T08:03:48;99361.18;;;13.99;100.00
28027;BME280;15344;52.342;-1.290;2023-04-10T08:06:13;99358.20;;;13.49;100.00
28027;BME280;15344;52.342;-1.290;2023-04-10T08:08:40;99350.83;;;13.32;100.00
28027;BME280;15344;52.342;-1.290;2023-04-10T08:11:07;99344.20;;;13.14;100.00
28027;BME280;15344;52.342;-1.290;2023-04-10T08:13:29;99343.55;;;12.97;100.00
28027;BME280;15344;52.342;-1.290;2023-04-10T08:15:54;99336.45;;;13.26;100.00
28027;BME280;15344;52.342;-1.290;2023-04-10T08:18:20;99334.86;;;13.47;100.00
28027;BME280;15344;52.342;-1.290;2023-04-10T08:20:45;99330.33;;;12.75;100.00
28027;BME280;15344;52.342;-1.290;2023-04-10T08:23:10;99337.79;;;13.50;100.00
28027;BME280;15344;52.342;-1.290;2023-04-10T08:25:36;99342.05;;;12.38;100.00
28027;BME280;15344;52.342;-1.290;2023-04-10T08:28:01;99340.09;;;13.46;100.00
28027;BME280;15344;52.342;-1.290;2023-04-10T08:30:27;99339.75;;;13.95;100.00
28027;BME280;15344;52.342;-1.290;2023-04-10T08:32:52;99335.44;;;13.51;100.00
28027;BME280;15344;52.342;-1.290;2023-04-10T08:35:17;99338.29;;;13.69;100.00
28027;BME280;15344;52.342;-1.290;2023-04-10T08:37:43;99332.05;;;13.63;100.00
28027;BME280;15344;52.342;-1.290;2023-04-10T08:40:08;99329.18;;;13.84;100.00
28027;BME280;15344;52.342;-1.290;2023-04-10T08:42:35;99329.83;;;13.62;100.00
28027;BME280;15344;52.342;-1.290;2023-04-10T08:44:58;99324.79;;;14.18;100.00
28027;BME280;15344;52.342;-1.290;2023-04-10T08:47:26;99319.70;;;14.20;100.00
28027;BME280;15344;52.342;-1.290;2023-04-10T08:49:55;99324.55;;;14.00;100.00
28027;BME280;15344;52.342;-1.290;2023-04-10T08:52:17;99322.93;;;14.14;100.00
28027;BME280;15344;52.342;-1.290;2023-04-10T08:54:40;99316.38;;;14.36;100.00
28027;BME280;15344;52.342;-1.290;2023-04-10T08:57:06;99313.05;;;13.58;100.00
28027;BME280;15344;52.342;-1.290;2023-04-10T08:59:31;99310.77;;;13.22;100.00
28027;BME280;15344;52.342;-1.290;2023-04-10T09:01:57;99299.27;;;13.75;100.00
28027;BME280;15344;52.342;-1.290;2023-04-10T09:04:22;99300.13;;;13.78;100.00
28027;BME280;15344;52.342;-1.290;2023-04-10T09:06:47;99297.39;;;13.20;100.00
28027;BME280;15344;52.342;-1.290;2023-04-10T09:09:12;99296.13;;;13.86;100.00
28027;BME280;15344;52.342;-1.290;2023-04-10T09:14:05;99290.91;;;14.16;100.00
28027;BME280;15344;52.342;-1.290;2023-04-10T09:16:28;99294.41;;;13.87;100.00
28027;BME280;15344;52.342;-1.290;2023-04-10T09:18:53;99294.40;;;13.79;100.00
28027;BME280;15344;52.342;-1.290;2023-04-10T09:21:20;99287.74;;;13.74;100.00
28027;BME280;15344;52.342;-1.290;2023-04-10T09:23:45;99284.74;;;13.33;100.00
28027;BME280;15344;52.342;-1.290;2023-04-10T09:31:00;99268.04;;;14.36;100.00
28027;BME280;15344;52.342;-1.290;2023-04-10T09:33:27;99257.76;;;14.30;100.00
28027;BME280;15344;52.342;-1.290;2023-04-10T09:35:50;99252.10;;;14.34;100.00
28027;BME280;15344;52.342;-1.290;2023-04-10T09:38:17;99243.57;;;15.13;100.00
28027;BME280;15344;52.342;-1.290;2023-04-10T09:40:42;99239.13;;;14.61;100.00
28027;BME280;15344;52.342;-1.290;2023-04-10T09:48:01;99233.13;;;14.78;100.00
28027;BME280;15344;52.342;-1.290;2023-04-10T09:50:33;99226.22;;;14.43;100.00
28027;BME280;15344;52.342;-1.290;2023-04-10T09:52:56;99228.47;;;14.92;100.00
28027;BME280;15344;52.342;-1.290;2023-04-10T09:55:16;99223.90;;;14.88;100.00
28027;BME280;15344;52.342;-1.290;2023-04-10T09:57:38;99222.53;;;14.80;100.00
28027;BME280;15344;52.342;-1.290;2023-04-10T10:00:05;99213.89;;;14.64;100.00
28027;BME280;15344;52.342;-1.290;2023-04-10T10:02:36;99207.45;;;14.42;100.00
28027;BME280;15344;52.342;-1.290;2023-04-10T10:04:54;99195.25;;;14.35;100.00
28027;BME280;15344;52.342;-1.290;2023-04-10T10:07:21;99194.02;;;14.70;100.00
28027;BME280;15344;52.342;-1.290;2023-04-10T10:09:46;99190.65;;;14.99;100.00
28027;BME280;15344;52.342;-1.290;2023-04-10T10:12:11;99185.19;;;14.67;100.00
28027;BME280;15344;52.342;-1.290;2023-04-10T10:14:39;99177.01;;;14.56;100.00
28027;BME280;15344;52.342;-1.290;2023-04-10T10:17:05;99180.15;;;14.22;100.00
28027;BME280;15344;52.342;-1.290;2023-04-10T10:19:30;99186.36;;;14.90;100.00
28027;BME280;15344;52.342;-1.290;2023-04-10T10:21:51;99176.73;;;14.55;100.00
28027;BME280;15344;52.342;-1.290;2023-04-10T10:24:19;99165.68;;;14.83;100.00
28027;BME280;15344;52.342;-1.290;2023-04-10T10:26:42;99169.33;;;14.79;100.00
28027;BME280;15344;52.342;-1.290;2023-04-10T10:29:08;99166.38;;;14.22;100.00
28027;BME280;15344;52.342;-1.290;2023-04-10T10:31:33;99165.85;;;14.62;100.00
28027;BME280;15344;52.342;-1.290;2023-04-10T10:33:59;99167.87;;;14.86;100.00
28027;BME280;15344;52.342;-1.290;2023-04-10T10:36:23;99164.71;;;13.94;100.00
28027;BME280;15344;52.342;-1.290;2023-04-10T10:38:56;99157.71;;;14.12;100.00
28027;BME280;15344;52.342;-1.290;2023-04-10T10:41:19;99155.19;;;14.10;100.00
28027;BME280;15344;52.342;-1.290;2023-04-10T10:43:48;99142.82;;;14.73;100.00
28027;BME280;15344;52.342;-1.290;2023-04-10T10:46:09;99136.50;;;14.75;100.00
28027;BME280;15344;52.342;-1.290;2023-04-10T10:48:29;99143.29;;;15.52;100.00
28027;BME280;15344;52.342;-1.290;2023-04-10T10:50:55;99140.24;;;15.17;100.00
28027;BME280;15344;52.342;-1.290;2023-04-10T10:55:45;99128.80;;;15.64;100.00
28027;BME280;15344;52.342;-1.290;2023-04-10T10:58:10;99111.34;;;16.12;100.00
28027;BME280;15344;52.342;-1.290;2023-04-10T11:10:16;99112.65;;;14.64;100.00
28027;BME280;15344;52.342;-1.290;2023-04-10T11:15:07;99102.38;;;14.84;100.00
28027;BME280;15344;52.342;-1.290;2023-04-10T11:19:58;99100.31;;;14.87;100.00
28027;BME280;15344;52.342;-1.290;2023-04-10T11:22:23;99105.77;;;14.53;100.00
28027;BME280;15344;52.342;-1.290;2023-04-10T11:24:53;99100.48;;;15.05;100.00
28027;BME280;15344;52.342;-1.290;2023-04-10T11:29:39;99100.35;;;15.19;100.00
28027;BME280;15344;52.342;-1.290;2023-04-10T11:32:04;99096.23;;;14.59;100.00
28027;BME280;15344;52.342;-1.290;2023-04-10T11:34:30;99103.71;;;14.26;100.00
28027;BME280;15344;52.342;-1.290;2023-04-10T11:36:55;99093.92;;;13.85;100.00
28027;BME280;15344;52.342;-1.290;2023-04-10T11:39:20;99084.87;;;14.81;100.00
28027;BME280;15344;52.342;-1.290;2023-04-10T11:41:46;99077.90;;;15.01;100.00
28027;BME280;15344;52.342;-1.290;2023-04-10T11:44:12;99071.64;;;15.67;100.00
28027;BME280;15344;52.342;-1.290;2023-04-10T11:46:37;99071.43;;;15.10;100.00
28027;BME280;15344;52.342;-1.290;2023-04-10T11:49:03;99070.06;;;14.11;100.00
28027;BME280;15344;52.342;-1.290;2023-04-10T11:51:27;99058.50;;;14.32;100.00
28027;BME280;15344;52.342;-1.290;2023-04-10T11:56:19;99065.10;;;14.06;100.00
28027;BME280;15344;52.342;-1.290;2023-04-10T11:58:43;99061.80;;;14.14;100.00
28027;BME280;15344;52.342;-1.290;2023-04-10T12:01:08;99070.35;;;13.55;100.00
28027;BME280;15344;52.342;-1.290;2023-04-10T12:03:36;99119.41;;;12.28;100.00
28027;BME280;15344;52.342;-1.290;2023-04-10T12:05:59;99118.39;;;11.76;100.00
28027;BME280;15344;52.342;-1.290;2023-04-10T12:08:29;99112.08;;;11.56;100.00
28027;BME280;15344;52.342;-1.290;2023-04-10T12:10:50;99111.84;;;11.68;100.00
28027;BME280;15344;52.342;-1.290;2023-04-10T12:13:23;99098.32;;;11.42;100.00
28027;BME280;15344;52.342;-1.290;2023-04-10T12:15:40;99093.61;;;12.20;100.00
28027;BME280;15344;52.342;-1.290;2023-04-10T12:18:06;99099.78;;;12.46;100.00
28027;BME280;15344;52.342;-1.290;2023-04-10T12:20:31;99106.58;;;12.66;100.00
28027;BME280;15344;52.342;-1.290;2023-04-10T12:22:57;99117.48;;;12.79;100.00
28027;BME280;15344;52.342;-1.290;2023-04-10T12:25:21;99099.72;;;13.38;100.00
28027;BME280;15344;52.342;-1.290;2023-04-10T12:27:48;99098.26;;;13.66;100.00
28027;BME280;15344;52.342;-1.290;2023-04-10T12:30:12;99090.17;;;13.39;100.00
28027;BME280;15344;52.342;-1.290;2023-04-10T12:32:37;99099.93;;;13.14;100.00
28027;BME280;15344;52.342;-1.290;2023-04-10T12:35:03;99103.36;;;12.11;100.00
28027;BME280;15344;52.342;-1.290;2023-04-10T12:42:20;99086.87;;;13.13;100.00
28027;BME280;15344;52.342;-1.290;2023-04-10T12:44:49;99082.32;;;12.81;100.00
28027;BME280;15344;52.342;-1.290;2023-04-10T12:47:09;99087.53;;;12.68;100.00
28027;BME280;15344;52.342;-1.290;2023-04-10T12:49:34;99089.60;;;12.56;100.00
28027;BME280;15344;52.342;-1.290;2023-04-10T12:52:01;99085.96;;;12.95;100.00
28027;BME280;15344;52.342;-1.290;2023-04-10T12:54:28;99096.33;;;12.65;100.00
28027;BME280;15344;52.342;-1.290;2023-04-10T12:56:51;99086.01;;;12.50;100.00
28027;BME280;15344;52.342;-1.290;2023-04-10T12:59:16;99079.44;;;13.58;100.00
28027;BME280;15344;52.342;-1.290;2023-04-10T13:01:41;99067.99;;;13.70;100.00
28027;BME280;15344;52.342;-1.290;2023-04-10T13:04:06;99077.07;;;12.78;100.00
28027;BME280;15344;52.342;-1.290;2023-04-10T13:06:32;99074.61;;;12.82;100.00
28027;BME280;15344;52.342;-1.290;2023-04-10T13:08:57;99075.31;;;13.08;100.00